»·PEaware :: SKW1187 KSNA-KPHX

SKW1187 :: KSNA-KPHX

FLIGHT INFORMATION

Flight Status: Arrived
Operator:
SkyWest Airlines
More flights by this operator :: More flights under this callsign
Pilot: Anonymous 12254 (12254)
Aircraft: CANADAIR CL-600 CRJ-200
(CRJ2)
More flights by this aircraft type
Origin: KSNA John Wayne-Orange Co
United States
Destination: KPHX Phoenix Sky Harbor Intl
United States
More flights between these airports :: More routes between these airports
Route: +STAYY1 CNERY BLH HYDRR1
File this flight plan on PilotEdge
Remarks:
Altitude:
(Current/Filed)
31,000ft
Speed:
(Current/Filed)
450kts
Departed: 06-Jun-19 09:32 AM
Arrived: 06-Jun-19 10:39 AM
Distance/Time
Traveled:
293nm/1:07
Distance/Time
To Go:
Arrived

Flight Plot

Page will automatically refresh every two minutes.

Flight plan parsing failed; only flown route is shown


Map Options




Map Legend


Flown Route
Filed Route
Departure Airport
Arrival Airport
Navaid (VOR, NDB)
Fix

Horizontal Profiles

Position Reports

Time Latitude Longitude Heading Altitude Ground
Speed
06-Jun-19 08:58 33.675701 -117.864594 118 61ft 0kts
06-Jun-19 08:58 33.675701 -117.864594 118 61ft 0kts
06-Jun-19 09:00 33.675701 -117.864594 118 61ft 0kts
06-Jun-19 09:01 33.675701 -117.864594 118 61ft 0kts
06-Jun-19 09:01 33.675701 -117.864594 118 61ft 0kts
06-Jun-19 09:03 33.675701 -117.864594 118 61ft 0kts
06-Jun-19 09:03 33.675701 -117.864594 118 61ft 0kts
06-Jun-19 09:04 33.675701 -117.864594 118 61ft 0kts
06-Jun-19 09:05 33.675701 -117.864594 118 61ft 0kts
06-Jun-19 09:06 33.675701 -117.864594 118 61ft 0kts
06-Jun-19 09:07 33.675701 -117.864594 118 61ft 0kts
06-Jun-19 09:08 33.675701 -117.864594 118 61ft 0kts
06-Jun-19 09:09 33.675701 -117.864594 118 61ft 0kts
06-Jun-19 09:10 33.675701 -117.864594 118 61ft 0kts
06-Jun-19 09:11 33.675701 -117.864594 118 61ft 0kts
06-Jun-19 09:12 33.675701 -117.864594 118 61ft 0kts
06-Jun-19 09:13 33.675701 -117.864594 118 61ft 0kts
06-Jun-19 09:14 33.675701 -117.864594 118 61ft 0kts
06-Jun-19 09:15 33.675701 -117.864594 118 61ft 0kts
06-Jun-19 09:16 33.675701 -117.864594 118 61ft 0kts
06-Jun-19 09:17 33.675700 -117.864594 118 61ft 0kts
06-Jun-19 09:18 33.675700 -117.864594 118 61ft 0kts
06-Jun-19 09:19 33.675700 -117.864594 118 61ft 0kts
06-Jun-19 09:20 33.675700 -117.864594 118 61ft 0kts
06-Jun-19 09:21 33.675700 -117.864594 118 61ft 0kts
06-Jun-19 09:22 33.675700 -117.864594 118 61ft 0kts
06-Jun-19 09:23 33.675700 -117.864594 118 61ft 0kts
06-Jun-19 09:24 33.675700 -117.864594 118 61ft 0kts
06-Jun-19 09:25 33.675833 -117.864890 118 61ft 1kts
06-Jun-19 09:26 33.675932 -117.865316 29 61ft 0kts
06-Jun-19 09:27 33.675943 -117.865309 28 61ft 0kts
06-Jun-19 09:28 33.677080 -117.864592 27 61ft 9kts
06-Jun-19 09:29 33.680396 -117.862761 334 61ft 15kts
06-Jun-19 09:30 33.681144 -117.864175 297 61ft 0kts
06-Jun-19 09:31 33.675138 -117.869222 208 61ft 126kts
06-Jun-19 09:32 33.630982 -117.889731 173 2116ft 179kts
06-Jun-19 09:33 33.576688 -117.900013 171 3875ft 218kts
06-Jun-19 09:34 33.519942 -117.867414 150 5338ft 238kts
06-Jun-19 09:35 33.484840 -117.799108 115 6882ft 250kts
06-Jun-19 09:36 33.480133 -117.716132 85 8038ft 246kts
06-Jun-19 09:37 33.506957 -117.644952 60 9190ft 231kts
06-Jun-19 09:38 33.538673 -117.577565 60 10239ft 226kts
06-Jun-19 09:39 33.570730 -117.510061 62 12274ft 242kts
06-Jun-19 09:40 33.566429 -117.433722 112 14354ft 244kts
06-Jun-19 09:41 33.542928 -117.355263 113 16384ft 256kts
06-Jun-19 09:42 33.517540 -117.273867 114 18392ft 264kts
06-Jun-19 09:43 33.504360 -117.187125 95 20397ft 268kts
06-Jun-19 09:44 33.502237 -117.098970 95 22363ft 257kts
06-Jun-19 09:45 33.500393 -117.011704 94 24380ft 269kts
06-Jun-19 09:46 33.498445 -116.920104 94 26399ft 280kts
06-Jun-19 09:47 33.497248 -116.826041 93 28396ft 283kts
06-Jun-19 09:48 33.496177 -116.732525 93 30357ft 277kts
06-Jun-19 09:49 33.494979 -116.635561 93 30947ft 305kts
06-Jun-19 09:50 33.493607 -116.529856 93 30934ft 330kts
06-Jun-19 09:51 33.492023 -116.415720 92 30921ft 357kts
06-Jun-19 09:52 33.490202 -116.291367 93 30914ft 385kts
06-Jun-19 09:53 33.488122 -116.158704 93 30913ft 412kts
06-Jun-19 09:54 33.491264 -116.017547 73 30919ft 440kts
06-Jun-19 09:55 33.532621 -115.875188 71 30913ft 462kts
06-Jun-19 09:56 33.574949 -115.729911 71 30908ft 459kts
06-Jun-19 09:57 33.615523 -115.585207 81 30658ft 457kts
06-Jun-19 09:58 33.614240 -115.435660 93 29322ft 446kts
06-Jun-19 09:59 33.610559 -115.287313 93 27826ft 441kts
06-Jun-19 10:00 33.606774 -115.141930 93 26517ft 430kts
06-Jun-19 10:01 33.602953 -115.001505 93 25506ft 415kts
06-Jun-19 10:02 33.599126 -114.865740 93 24921ft 392kts
06-Jun-19 10:03 33.591554 -114.741252 103 24957ft 357kts
06-Jun-19 10:04 33.570996 -114.627017 101 24958ft 353kts
06-Jun-19 10:05 33.547762 -114.509498 105 24962ft 376kts
06-Jun-19 10:06 33.522708 -114.382935 104 24961ft 405kts
06-Jun-19 10:07 33.495789 -114.247092 105 24958ft 430kts
06-Jun-19 10:08 33.467276 -114.104516 105 24964ft 451kts
06-Jun-19 10:09 33.437722 -113.957090 105 24962ft 439kts
06-Jun-19 10:10 33.411131 -113.824666 105 24962ft 381kts
06-Jun-19 10:11 33.387547 -113.707881 106 24233ft 347kts
06-Jun-19 10:12 33.366085 -113.602021 106 23991ft 301kts
06-Jun-19 10:13 33.347804 -113.512274 107 24013ft 256kts
06-Jun-19 10:14 33.332708 -113.433855 105 24034ft 239kts
06-Jun-19 10:15 33.317441 -113.346094 104 22237ft 298kts
06-Jun-19 10:16 33.299416 -113.242096 104 20293ft 336kts
06-Jun-19 10:17 33.282814 -113.128704 102 18096ft 355kts
06-Jun-19 10:18 33.276040 -113.010225 90 17380ft 345kts
06-Jun-19 10:19 33.278587 -112.899010 89 17023ft 325kts
06-Jun-19 10:20 33.284131 -112.794516 81 16867ft 311kts
06-Jun-19 10:21 33.296893 -112.690705 80 15883ft 319kts
06-Jun-19 10:22 33.310280 -112.582774 80 14910ft 334kts
06-Jun-19 10:23 33.324070 -112.470889 80 13933ft 345kts
06-Jun-19 10:24 33.338137 -112.355856 80 12950ft 349kts
06-Jun-19 10:25 33.352015 -112.241492 81 11650ft 346kts
06-Jun-19 10:26 33.365294 -112.131374 82 9893ft 325kts
06-Jun-19 10:27 33.377821 -112.026673 82 7870ft 304kts
06-Jun-19 10:28 33.388804 -111.933383 79 5849ft 266kts
06-Jun-19 10:29 33.408762 -111.868792 110 5535ft 190kts
06-Jun-19 10:30 33.390649 -111.811609 109 5032ft 183kts
06-Jun-19 10:31 33.372820 -111.754830 109 5028ft 187kts
06-Jun-19 10:32 33.388132 -111.704455 358 5053ft 208kts
06-Jun-19 10:33 33.417386 -111.760813 279 4160ft 239kts
06-Jun-19 10:34 33.427785 -111.834969 273 4081ft 201kts
06-Jun-19 10:35 33.428111 -111.892709 270 3254ft 159kts
06-Jun-19 10:36 33.428788 -111.943812 270 2065ft 140kts
06-Jun-19 10:37 33.428770 -111.990376 268 1247ft 146kts
06-Jun-19 10:38 33.429377 -112.021673 309 1114ft 0kts
06-Jun-19 10:39 33.429613 -112.021909 316 1114ft 14kts
06-Jun-19 10:40 33.431492 -112.025437 12 1113ft 14kts
06-Jun-19 10:41 33.431892 -112.025308 31 1113ft 5kts
06-Jun-19 10:42 33.432886 -112.021361 89 1114ft 20kts
06-Jun-19 10:43 33.432886 -112.013009 84 1121ft 22kts
06-Jun-19 10:44 33.433895 -112.012997 292 1121ft 1kts
06-Jun-19 10:45 33.433968 -112.013228 291 1121ft 0kts
06-Jun-19 10:46 33.433968 -112.013228 291 1121ft 0kts
06-Jun-19 10:47 33.433968 -112.013228 291 1121ft 0kts
06-Jun-19 10:48 33.433968 -112.013228 291 1121ft 0kts

Navigation Log

Ident Type
Flight plan parsing failed, navigation log unavailable